createdAt,value
2022-10-13T00:00:55.350Z,13.27
2022-10-13T00:01:55.288Z,12.68
2022-10-13T00:02:55.277Z,12.62
2022-10-13T00:03:55.260Z,12.62
2022-10-13T00:04:55.248Z,13.05
2022-10-13T00:05:55.308Z,12.57
2022-10-13T00:06:55.219Z,12.46
2022-10-13T00:07:55.198Z,12.73
2022-10-13T00:08:55.203Z,12.57
2022-10-13T00:09:55.177Z,13.16
2022-10-13T00:10:55.179Z,12.41
2022-10-13T00:11:55.149Z,12.62
2022-10-13T00:12:55.139Z,12.62
2022-10-13T00:13:55.119Z,12.57
2022-10-13T00:14:55.117Z,12.78
2022-10-13T00:15:55.109Z,12.68
2022-10-13T00:16:55.091Z,13.11
2022-10-13T00:17:55.069Z,12.89
2022-10-13T00:18:55.060Z,12.73
2022-10-13T00:19:55.039Z,12.62
2022-10-13T00:20:55.054Z,13.21
2022-10-13T00:21:55.022Z,12.89
2022-10-13T00:22:55.010Z,12.78
2022-10-13T00:23:54.983Z,12.57
2022-10-13T00:24:54.981Z,12.89
2022-10-13T00:25:54.980Z,13.27
2022-10-13T00:26:54.959Z,12.68
2022-10-13T00:27:54.931Z,12.68
2022-10-13T00:28:54.998Z,12.68
2022-10-13T00:29:54.909Z,13.05
2022-10-13T00:30:54.921Z,12.46
2022-10-13T00:31:54.882Z,12.89
2022-10-13T00:32:54.871Z,13.11
2022-10-13T00:33:54.853Z,13.21
2022-10-13T00:34:54.860Z,13.21
2022-10-13T00:35:54.842Z,12.57
2022-10-13T00:36:54.842Z,12.46
2022-10-13T00:37:54.813Z,13.16
2022-10-13T00:38:54.792Z,12.46
2022-10-13T00:39:54.784Z,13.16
2022-10-13T00:40:54.786Z,12.46
2022-10-13T00:41:54.752Z,12.73
2022-10-13T00:42:54.751Z,12.68
2022-10-13T00:43:54.723Z,12.68
2022-10-13T00:44:54.713Z,12.57
2022-10-13T00:45:54.724Z,12.68
2022-10-13T00:46:54.694Z,12.46
2022-10-13T00:47:54.674Z,12.62
2022-10-13T00:48:54.663Z,12.84
2022-10-13T00:49:54.643Z,12.68
2022-10-13T00:50:54.665Z,12.41
2022-10-13T00:51:54.615Z,13.11
2022-10-13T00:52:54.624Z,12.68
2022-10-13T00:53:54.584Z,12.84
2022-10-13T00:54:54.583Z,13.27
2022-10-13T00:55:54.585Z,13.11
2022-10-13T00:56:54.556Z,12.78
2022-10-13T00:57:54.541Z,12.78
2022-10-13T00:58:54.526Z,12.68
2022-10-13T00:59:54.506Z,12.78
2022-10-13T01:00:54.570Z,12.68
2022-10-13T01:01:54.485Z,12.68
2022-10-13T01:02:54.475Z,12.62
2022-10-13T01:03:54.455Z,12.62
2022-10-13T01:04:54.445Z,13.05
2022-10-13T01:05:54.446Z,12.46
2022-10-13T01:06:54.425Z,12.30
2022-10-13T01:07:54.403Z,12.62
2022-10-13T01:08:54.397Z,12.46
2022-10-13T01:09:54.376Z,12.62
2022-10-13T01:10:54.387Z,12.41
2022-10-13T01:11:54.356Z,13.11
2022-10-13T01:12:54.343Z,12.62
2022-10-13T01:13:54.324Z,12.41
2022-10-13T01:14:54.318Z,12.51
2022-10-13T01:15:54.316Z,12.68
2022-10-13T01:16:54.291Z,12.62
2022-10-13T01:17:54.267Z,12.89
2022-10-13T01:18:54.279Z,12.73
2022-10-13T01:19:54.247Z,12.51
2022-10-13T01:20:54.258Z,12.68
2022-10-13T01:21:54.218Z,12.62
2022-10-13T01:22:54.208Z,12.62
2022-10-13T01:23:54.188Z,12.84
2022-10-13T01:24:54.179Z,13.21
2022-10-13T01:25:54.187Z,12.68
2022-10-13T01:26:54.148Z,12.68
2022-10-13T01:27:54.137Z,13.11
2022-10-13T01:28:54.129Z,12.84
2022-10-13T01:29:54.109Z,13.05
2022-10-13T01:30:54.123Z,12.68
2022-10-13T01:31:54.079Z,12.51
2022-10-13T01:32:54.069Z,12.62
2022-10-13T01:33:54.060Z,12.46
2022-10-13T01:34:54.050Z,12.89
2022-10-13T01:35:54.049Z,12.89
2022-10-13T01:36:54.022Z,12.51
2022-10-13T01:37:54.008Z,12.62
2022-10-13T01:38:54.009Z,12.46
2022-10-13T01:39:53.978Z,12.68
2022-10-13T01:40:53.991Z,12.68
2022-10-13T01:41:53.952Z,12.68
2022-10-13T01:42:53.938Z,12.68
2022-10-13T01:43:53.927Z,12.51
2022-10-13T01:44:53.911Z,12.68
2022-10-13T01:45:53.913Z,12.62
2022-10-13T01:46:53.880Z,12.62
2022-10-13T01:47:53.861Z,12.62
2022-10-13T01:48:53.861Z,12.78
2022-10-13T01:49:53.841Z,12.46
2022-10-13T01:50:53.841Z,12.73
2022-10-13T01:51:53.832Z,12.62
2022-10-13T01:52:53.801Z,12.68
2022-10-13T01:53:53.789Z,12.62
2022-10-13T01:54:53.780Z,12.89
2022-10-13T01:55:53.803Z,12.51
2022-10-13T01:56:53.750Z,12.89
2022-10-13T01:57:53.729Z,12.68
2022-10-13T01:58:53.722Z,12.84
2022-10-13T01:59:53.713Z,12.89
2022-10-13T02:00:53.792Z,12.51
2022-10-13T02:01:53.673Z,12.62
2022-10-13T02:02:53.663Z,12.62
2022-10-13T02:03:53.643Z,12.51
2022-10-13T02:04:53.633Z,12.84
2022-10-13T02:05:53.651Z,12.62
2022-10-13T02:06:53.614Z,12.73
2022-10-13T02:07:53.594Z,13.00
2022-10-13T02:08:53.593Z,12.68
2022-10-13T02:09:53.566Z,12.84
2022-10-13T02:10:53.573Z,13.11
2022-10-13T02:11:53.534Z,12.46
2022-10-13T02:12:53.536Z,12.46
2022-10-13T02:13:53.515Z,12.57
2022-10-13T02:14:53.504Z,12.84
2022-10-13T02:15:53.505Z,12.41
2022-10-13T02:16:53.475Z,12.57
2022-10-13T02:17:53.462Z,12.68
2022-10-13T02:18:53.454Z,12.62
2022-10-13T02:19:53.433Z,13.05
2022-10-13T02:20:53.436Z,12.41
2022-10-13T02:21:53.405Z,12.62
2022-10-13T02:22:53.396Z,12.89
2022-10-13T02:23:53.376Z,12.73
2022-10-13T02:24:53.366Z,12.89
2022-10-13T02:25:53.371Z,12.46
2022-10-13T02:26:53.348Z,12.51
2022-10-13T02:27:53.327Z,12.51
2022-10-13T02:28:53.316Z,12.84
2022-10-13T02:29:53.295Z,12.84
2022-10-13T02:30:53.296Z,12.62
2022-10-13T02:31:53.267Z,12.68
2022-10-13T02:32:53.257Z,12.51
2022-10-13T02:33:53.247Z,13.11
2022-10-13T02:34:53.267Z,13.21
2022-10-13T02:35:53.235Z,12.68
2022-10-13T02:36:53.206Z,12.46
2022-10-13T02:37:53.198Z,12.84
2022-10-13T02:38:53.178Z,12.46
2022-10-13T02:39:53.165Z,12.68
2022-10-13T02:40:53.168Z,12.68
2022-10-13T02:41:53.138Z,12.62
2022-10-13T02:42:53.127Z,12.89
2022-10-13T02:43:53.108Z,12.68
2022-10-13T02:44:53.109Z,12.89
2022-10-13T02:45:53.097Z,12.68
2022-10-13T02:46:53.069Z,12.62
2022-10-13T02:47:53.049Z,12.89
2022-10-13T02:48:53.059Z,12.62
2022-10-13T02:49:53.028Z,12.62
2022-10-13T02:50:53.029Z,12.46
2022-10-13T02:51:52.999Z,12.73
2022-10-13T02:52:52.991Z,12.62
2022-10-13T02:53:52.981Z,12.51
2022-10-13T02:54:52.969Z,12.84
2022-10-13T02:55:52.959Z,12.46
2022-10-13T02:56:52.931Z,12.62
2022-10-13T02:57:52.922Z,12.46
2022-10-13T02:58:52.920Z,12.62
2022-10-13T02:59:52.907Z,12.73
2022-10-13T03:00:52.962Z,12.46
2022-10-13T03:01:52.861Z,13.05
2022-10-13T03:02:52.860Z,12.62
2022-10-13T03:03:52.849Z,12.57
2022-10-13T03:04:52.838Z,12.51
2022-10-13T03:05:52.842Z,12.46
2022-10-13T03:06:52.802Z,12.46
2022-10-13T03:07:52.791Z,12.73
2022-10-13T03:08:52.782Z,12.68
2022-10-13T03:09:52.790Z,12.46
2022-10-13T03:10:52.744Z,12.68
2022-10-13T03:11:52.732Z,12.84
2022-10-13T03:12:52.722Z,12.41
2022-10-13T03:13:52.713Z,12.62
2022-10-13T03:14:52.704Z,12.62
2022-10-13T03:15:52.685Z,12.84
2022-10-13T03:16:52.663Z,12.84
2022-10-13T03:17:52.653Z,12.57
2022-10-13T03:18:52.644Z,12.62
2022-10-13T03:19:52.663Z,12.62
2022-10-13T03:20:52.614Z,12.62
2022-10-13T03:21:52.603Z,12.62
2022-10-13T03:22:52.585Z,12.84
2022-10-13T03:23:52.573Z,12.41
2022-10-13T03:24:52.569Z,12.68
2022-10-13T03:25:52.545Z,12.46
2022-10-13T03:26:52.525Z,12.84
2022-10-13T03:27:52.522Z,12.89
2022-10-13T03:28:52.548Z,12.84
2022-10-13T03:29:52.515Z,12.89
2022-10-13T03:30:52.474Z,12.73
2022-10-13T03:31:52.465Z,12.41
2022-10-13T03:32:52.447Z,12.68
2022-10-13T03:33:52.453Z,12.62
2022-10-13T03:34:52.443Z,12.35
2022-10-13T03:35:52.422Z,12.84
2022-10-13T03:36:52.395Z,12.84
2022-10-13T03:37:52.387Z,12.46
2022-10-13T03:38:52.366Z,12.89
2022-10-13T03:39:52.376Z,12.84
2022-10-13T03:40:52.345Z,12.73
2022-10-13T03:41:52.330Z,12.68
2022-10-13T03:42:52.316Z,12.57
2022-10-13T03:43:52.297Z,12.46
2022-10-13T03:44:56.118Z,12.89
2022-10-13T03:45:52.288Z,12.68
2022-10-13T03:46:52.262Z,12.41
2022-10-13T03:47:52.247Z,12.68
2022-10-13T03:48:52.238Z,12.68
2022-10-13T03:49:52.253Z,12.46
2022-10-13T03:50:52.207Z,12.57
2022-10-13T03:51:52.255Z,12.84
2022-10-13T03:52:52.177Z,12.46
2022-10-13T03:53:52.169Z,12.62
2022-10-13T03:54:52.168Z,12.62
2022-10-13T03:55:52.148Z,12.68
2022-10-13T03:56:52.120Z,12.51
2022-10-13T03:57:52.118Z,12.68
2022-10-13T03:58:52.098Z,12.62
2022-10-13T03:59:52.110Z,12.41
2022-10-13T04:00:52.083Z,12.68
2022-10-13T04:01:52.123Z,12.57
2022-10-13T04:02:52.049Z,12.46
2022-10-13T04:03:52.037Z,12.68
2022-10-13T04:04:52.032Z,12.68
2022-10-13T04:05:52.009Z,12.68
2022-10-13T04:06:52.001Z,12.46
2022-10-13T04:07:51.979Z,12.78
2022-10-13T04:08:51.959Z,12.84
2022-10-13T04:09:51.980Z,12.62
2022-10-13T04:10:51.950Z,12.51
2022-10-13T04:11:51.930Z,12.46
2022-10-13T04:12:51.918Z,12.84
2022-10-13T04:13:51.900Z,12.62
2022-10-13T04:14:51.911Z,12.46
2022-10-13T04:15:51.882Z,12.62
2022-10-13T04:16:51.881Z,12.62
2022-10-13T04:17:51.850Z,12.46
2022-10-13T04:18:51.831Z,12.51
2022-10-13T04:19:51.842Z,12.46
2022-10-13T04:20:51.814Z,12.51
2022-10-13T04:21:51.804Z,12.46
2022-10-13T04:22:58.810Z,12.57
2022-10-13T04:23:51.771Z,12.84
2022-10-13T04:24:54.419Z,12.78
2022-10-13T04:25:51.741Z,12.68
2022-10-13T04:26:51.730Z,12.84
2022-10-13T04:27:51.751Z,12.73
2022-10-13T04:28:51.744Z,12.68
2022-10-13T04:29:51.704Z,12.68
2022-10-13T04:30:51.690Z,12.84
2022-10-13T04:31:51.664Z,12.84
2022-10-13T04:32:51.652Z,12.84
2022-10-13T04:33:51.633Z,12.68
2022-10-13T04:34:51.634Z,12.84
2022-10-13T04:35:51.621Z,12.68
2022-10-13T04:36:51.602Z,12.46
2022-10-13T04:37:51.583Z,12.73
2022-10-13T04:38:51.572Z,12.46
2022-10-13T04:39:51.571Z,12.84
2022-10-13T04:40:51.561Z,12.84
2022-10-13T04:41:51.543Z,12.89
2022-10-13T04:42:51.503Z,12.68
2022-10-13T04:43:51.506Z,12.08
2022-10-13T04:44:51.496Z,12.78
2022-10-13T04:45:51.477Z,12.62
2022-10-13T04:46:51.466Z,12.57
2022-10-13T04:47:51.454Z,12.68
2022-10-13T04:48:51.432Z,12.46
2022-10-13T04:49:51.415Z,12.73
2022-10-13T04:50:51.444Z,12.62
2022-10-13T04:51:51.398Z,12.51
2022-10-13T04:52:51.410Z,12.89
2022-10-13T04:53:51.366Z,12.51
2022-10-13T04:54:51.366Z,12.68
2022-10-13T04:55:51.336Z,12.62
2022-10-13T04:56:51.333Z,12.62
2022-10-13T04:57:51.315Z,12.41
2022-10-13T04:58:51.325Z,12.73
2022-10-13T04:59:51.300Z,12.84
2022-10-13T05:00:51.301Z,12.62
2022-10-13T05:01:51.255Z,12.57
2022-10-13T05:02:51.235Z,12.62
2022-10-13T05:03:51.226Z,12.62
2022-10-13T05:04:51.228Z,12.62
2022-10-13T05:05:51.218Z,12.62
2022-10-13T05:07:16.506Z,12.46
2022-10-13T05:07:52.196Z,12.51
2022-10-13T05:08:51.166Z,12.73
2022-10-13T05:09:51.167Z,12.57
2022-10-13T05:10:51.157Z,12.84
2022-10-13T05:11:51.119Z,12.62
2022-10-13T05:12:51.116Z,12.46
2022-10-13T05:13:51.108Z,12.57
2022-10-13T05:14:51.097Z,12.62
2022-10-13T05:15:51.077Z,12.68
2022-10-13T05:16:51.075Z,12.51
2022-10-13T05:17:51.051Z,12.41
2022-10-13T05:18:51.029Z,12.46
2022-10-13T05:19:51.041Z,12.62
2022-10-13T05:20:51.000Z,12.62
2022-10-13T05:21:50.988Z,12.68
2022-10-13T05:22:50.968Z,12.68
2022-10-13T05:23:50.978Z,12.62
2022-10-13T05:24:50.979Z,12.46
2022-10-13T05:25:50.931Z,12.68
2022-10-13T05:26:50.919Z,12.62
2022-10-13T05:27:50.918Z,12.51
2022-10-13T05:28:50.961Z,12.46
2022-10-13T05:29:50.909Z,12.68
2022-10-13T05:30:50.859Z,12.84
2022-10-13T05:31:50.849Z,12.84
2022-10-13T05:32:53.873Z,12.46
2022-10-13T05:33:50.833Z,12.68
2022-10-13T05:34:50.840Z,12.51
2022-10-13T05:35:50.822Z,12.68
2022-10-13T05:36:50.840Z,12.73
2022-10-13T05:37:50.770Z,12.78
2022-10-13T05:38:50.751Z,12.84
2022-10-13T05:39:50.761Z,12.68
2022-10-13T05:40:50.740Z,12.68
2022-10-13T05:41:50.723Z,12.46
2022-10-13T05:42:50.733Z,12.68
2022-10-13T05:43:50.691Z,12.68
2022-10-13T05:44:50.690Z,12.68
2022-10-13T05:45:50.669Z,12.84
2022-10-13T05:46:50.651Z,12.68
2022-10-13T05:47:50.674Z,12.73
2022-10-13T05:48:50.623Z,12.84
2022-10-13T05:49:50.630Z,12.78
2022-10-13T05:50:50.592Z,12.46
2022-10-13T05:51:50.603Z,12.68
2022-10-13T05:52:50.562Z,12.51
2022-10-13T05:53:55.347Z,12.84
2022-10-13T05:54:51.571Z,12.62
2022-10-13T05:55:50.557Z,12.84
2022-10-13T05:56:50.510Z,12.46
2022-10-13T05:57:50.534Z,12.62
2022-10-13T05:58:50.497Z,12.62
2022-10-13T05:59:50.497Z,12.51
2022-10-13T06:00:50.455Z,12.46
2022-10-13T06:01:50.514Z,12.57
2022-10-13T06:02:50.434Z,12.46
2022-10-13T06:03:50.431Z,12.89
2022-10-13T06:04:50.433Z,12.84
2022-10-13T06:05:50.395Z,12.41
2022-10-13T06:06:50.374Z,12.62
2022-10-13T06:07:50.371Z,12.89
2022-10-13T06:08:50.344Z,12.51
2022-10-13T06:09:50.364Z,12.73
2022-10-13T06:10:50.323Z,12.84
2022-10-13T06:11:50.325Z,12.89
2022-10-13T06:12:50.309Z,12.84
2022-10-13T06:13:50.298Z,12.84
2022-10-13T06:14:50.303Z,12.84
2022-10-13T06:15:50.275Z,12.78
2022-10-13T06:16:50.256Z,12.68
2022-10-13T06:17:50.244Z,12.68
2022-10-13T06:18:50.229Z,12.68
2022-10-13T06:19:50.234Z,12.62
2022-10-13T06:20:50.190Z,12.84
2022-10-13T06:21:50.195Z,12.46
2022-10-13T06:22:50.178Z,12.51
2022-10-13T06:23:50.164Z,12.57
2022-10-13T06:24:50.179Z,12.68
2022-10-13T06:25:50.128Z,12.89
2022-10-13T06:26:50.106Z,12.46
2022-10-13T06:27:50.105Z,12.46
2022-10-13T06:28:51.831Z,12.62
2022-10-13T06:29:50.126Z,12.62
2022-10-13T06:30:50.098Z,12.46
2022-10-13T06:31:50.075Z,12.89
2022-10-13T06:32:50.042Z,12.68
2022-10-13T06:33:50.017Z,12.46
2022-10-13T06:34:50.021Z,12.62
2022-10-13T06:35:49.987Z,12.84
2022-10-13T06:36:49.989Z,12.62
2022-10-13T06:37:49.979Z,12.84
2022-10-13T06:38:49.970Z,12.84
2022-10-13T06:39:49.948Z,12.62
2022-10-13T06:40:49.946Z,12.46
2022-10-13T06:41:49.936Z,12.51
2022-10-13T06:42:49.889Z,12.89
2022-10-13T06:43:49.901Z,12.68
2022-10-13T06:44:49.902Z,12.68
2022-10-13T06:45:49.852Z,12.78
2022-10-13T06:46:49.838Z,12.51
2022-10-13T06:47:49.832Z,12.62
2022-10-13T06:48:49.799Z,12.73
2022-10-13T06:49:49.809Z,12.62
2022-10-13T06:50:49.778Z,12.78
2022-10-13T06:51:49.812Z,12.78
2022-10-13T06:52:49.760Z,12.57
2022-10-13T06:53:49.738Z,12.68
2022-10-13T06:54:49.750Z,12.68
2022-10-13T06:55:52.460Z,12.14
2022-10-13T06:56:49.699Z,12.84
2022-10-13T06:57:49.691Z,12.41
2022-10-13T06:58:49.673Z,12.78
2022-10-13T06:59:49.684Z,12.78
2022-10-13T07:00:49.707Z,12.73
2022-10-13T07:01:49.641Z,12.57
2022-10-13T07:02:49.626Z,12.46
2022-10-13T07:03:49.617Z,12.94
2022-10-13T07:04:49.610Z,12.46
2022-10-13T07:05:49.583Z,12.68
2022-10-13T07:06:49.586Z,12.51
2022-10-13T07:07:49.575Z,12.78
2022-10-13T07:08:49.556Z,13.05
2022-10-13T07:09:49.553Z,12.68
2022-10-13T07:10:49.523Z,12.78
2022-10-13T07:11:49.534Z,12.41
2022-10-13T07:12:49.514Z,12.51
2022-10-13T07:13:49.550Z,12.68
2022-10-13T07:14:49.475Z,12.68
2022-10-13T07:15:49.465Z,12.73
2022-10-13T07:16:49.440Z,12.68
2022-10-13T07:17:49.414Z,12.62
2022-10-13T07:18:49.422Z,12.08
2022-10-13T07:19:49.410Z,12.08
2022-10-13T07:20:49.376Z,12.08
2022-10-13T07:21:49.365Z,12.84
2022-10-13T07:22:49.367Z,12.68
2022-10-13T07:23:49.355Z,12.84
2022-10-13T07:24:49.355Z,12.46
2022-10-13T07:25:49.307Z,12.25
2022-10-13T07:26:49.297Z,12.51
2022-10-13T07:27:49.288Z,12.73
2022-10-13T07:28:49.338Z,12.78
2022-10-13T07:29:49.275Z,12.41
2022-10-13T07:30:49.250Z,12.57
2022-10-13T07:31:49.248Z,12.46
2022-10-13T07:32:49.216Z,12.68
2022-10-13T07:33:49.197Z,12.46
2022-10-13T07:34:49.203Z,12.68
2022-10-13T07:35:49.197Z,12.62
2022-10-13T07:36:49.181Z,12.51
2022-10-13T07:37:49.157Z,12.68
2022-10-13T07:38:49.179Z,12.84
2022-10-13T07:39:49.118Z,12.78
2022-10-13T07:40:49.129Z,12.84
2022-10-13T07:41:51.254Z,12.84
2022-10-13T07:42:49.087Z,12.08
2022-10-13T07:43:49.079Z,12.68
2022-10-13T07:44:49.076Z,12.62
2022-10-13T07:45:49.068Z,12.78
2022-10-13T07:46:49.039Z,12.78
2022-10-13T07:47:49.048Z,12.84
2022-10-13T07:48:49.013Z,12.89
2022-10-13T07:49:48.989Z,12.14
2022-10-13T07:50:49.001Z,12.57
2022-10-13T07:51:48.961Z,12.68
2022-10-13T07:52:48.950Z,12.46
2022-10-13T07:53:48.930Z,12.46
2022-10-13T07:54:48.932Z,12.08
2022-10-13T07:55:48.948Z,12.62
2022-10-13T07:56:48.900Z,12.08
2022-10-13T07:57:48.881Z,12.19
2022-10-13T07:58:48.871Z,12.25
2022-10-13T07:59:48.861Z,12.73
2022-10-13T08:00:48.861Z,12.68
2022-10-13T08:01:48.867Z,12.84
2022-10-13T08:02:48.819Z,12.19
2022-10-13T08:03:50.683Z,12.08
2022-10-13T08:04:48.801Z,12.68
2022-10-13T08:05:48.792Z,12.84
2022-10-13T08:06:48.766Z,12.14
2022-10-13T08:07:48.752Z,12.62
2022-10-13T08:08:48.743Z,12.68
2022-10-13T08:09:48.742Z,12.51
2022-10-13T08:10:48.807Z,12.68
2022-10-13T08:11:48.713Z,12.14
2022-10-13T08:12:48.691Z,12.62
2022-10-13T08:13:48.826Z,12.35
2022-10-13T08:15:48.710Z,12.41
2022-10-13T08:16:51.352Z,12.62
2022-10-13T08:17:49.634Z,12.08
2022-10-13T08:18:48.633Z,12.68
2022-10-13T08:19:48.595Z,12.46
2022-10-13T08:20:48.605Z,12.89
2022-10-13T08:22:06.657Z,12.19
2022-10-13T08:22:49.552Z,12.46
2022-10-13T08:23:48.535Z,12.84
2022-10-13T08:24:48.535Z,12.30
2022-10-13T08:25:48.516Z,12.73
2022-10-13T08:26:48.507Z,12.25
2022-10-13T08:27:53.808Z,12.68
2022-10-13T08:29:09.489Z,12.62
2022-10-13T08:29:49.456Z,12.46
2022-10-13T08:30:48.543Z,12.08
2022-10-13T08:32:48.417Z,12.73
2022-10-13T08:33:48.404Z,12.46
2022-10-13T08:34:48.395Z,12.14
2022-10-13T08:35:48.397Z,12.25
2022-10-13T08:36:48.387Z,12.30
2022-10-13T08:37:48.354Z,12.19
2022-10-13T08:38:48.352Z,12.19
2022-10-13T08:39:48.318Z,12.14
2022-10-13T08:40:48.329Z,12.19
2022-10-13T08:41:48.297Z,12.08
2022-10-13T08:42:48.288Z,12.62
2022-10-13T08:44:24.693Z,12.46
2022-10-13T08:45:16.030Z,12.46
2022-10-13T08:45:49.259Z,12.68
2022-10-13T08:46:48.251Z,12.68
2022-10-13T08:47:48.209Z,12.68
2022-10-13T08:48:48.209Z,12.08
2022-10-13T08:49:48.187Z,12.68
2022-10-13T08:50:48.189Z,12.62
2022-10-13T08:51:48.186Z,12.68
2022-10-13T08:52:48.149Z,12.25
2022-10-13T08:53:48.135Z,12.25
2022-10-13T08:54:48.131Z,12.68
2022-10-13T08:55:48.124Z,12.25
2022-10-13T08:56:48.184Z,12.25
2022-10-13T08:57:48.102Z,12.62
2022-10-13T08:58:48.071Z,12.25
2022-10-13T08:59:48.065Z,12.62
2022-10-13T09:00:48.079Z,12.68
2022-10-13T09:01:48.059Z,12.46
2022-10-13T09:02:48.022Z,12.25
2022-10-13T09:03:48.004Z,12.57
2022-10-13T09:04:47.991Z,12.03
2022-10-13T09:05:47.993Z,12.25
2022-10-13T09:06:47.969Z,12.51
2022-10-13T09:07:47.999Z,12.68
2022-10-13T09:08:47.940Z,12.46
2022-10-13T09:09:47.924Z,12.89
2022-10-13T09:10:47.923Z,12.84
2022-10-13T09:11:47.893Z,12.68
2022-10-13T09:12:47.886Z,12.25
2022-10-13T09:13:47.872Z,12.46
2022-10-13T09:14:47.854Z,12.08
2022-10-13T09:15:47.850Z,12.25
2022-10-13T09:16:47.845Z,12.68
2022-10-13T09:17:47.846Z,12.25
2022-10-13T09:18:47.804Z,12.08
2022-10-13T09:19:47.785Z,12.25
2022-10-13T09:20:47.803Z,12.14
2022-10-13T09:21:47.757Z,12.46
2022-10-13T09:22:47.746Z,12.62
2022-10-13T09:23:47.755Z,12.62
2022-10-13T09:24:47.726Z,12.25
2022-10-13T09:25:47.738Z,12.08
2022-10-13T09:26:47.715Z,12.62
2022-10-13T09:27:47.685Z,12.78
2022-10-13T09:28:47.708Z,12.57
2022-10-13T09:29:47.657Z,12.73
2022-10-13T09:30:47.678Z,12.46
2022-10-13T09:31:47.629Z,12.25
2022-10-13T09:32:47.617Z,12.08
2022-10-13T09:33:47.627Z,12.51
2022-10-13T09:34:47.595Z,12.19
2022-10-13T09:35:47.587Z,12.68
2022-10-13T09:36:47.577Z,12.68
2022-10-13T09:37:47.549Z,12.08
2022-10-13T09:38:47.539Z,12.08
2022-10-13T09:39:47.517Z,12.30
2022-10-13T09:40:47.531Z,12.08
2022-10-13T09:41:47.509Z,12.46
2022-10-13T09:42:47.489Z,12.62
2022-10-13T09:43:47.483Z,12.51
2022-10-13T09:44:47.460Z,12.51
2022-10-13T09:45:47.456Z,12.08
2022-10-13T09:46:47.430Z,12.03
2022-10-13T09:47:47.411Z,12.03
2022-10-13T09:48:47.399Z,12.51
2022-10-13T09:49:47.409Z,12.62
2022-10-13T09:50:47.390Z,12.03
2022-10-13T09:51:47.368Z,12.19
2022-10-13T09:52:47.350Z,12.51
2022-10-13T09:53:47.331Z,12.19
2022-10-13T09:54:47.333Z,12.25
2022-10-13T09:55:47.330Z,12.46
2022-10-13T09:56:47.291Z,12.14
2022-10-13T09:57:47.293Z,12.30
2022-10-13T09:58:47.280Z,12.08
2022-10-13T09:59:47.259Z,12.03
2022-10-13T10:00:47.283Z,12.14
2022-10-13T10:01:47.222Z,12.08
2022-10-13T10:02:47.221Z,12.68
2022-10-13T10:03:47.300Z,12.51
2022-10-13T10:04:47.193Z,12.30
2022-10-13T10:05:47.194Z,12.62
2022-10-13T10:06:47.164Z,12.08
2022-10-13T10:07:47.151Z,12.14
2022-10-13T10:09:04.354Z,12.46
2022-10-13T10:09:48.114Z,12.68
2022-10-13T10:10:47.176Z,12.51
2022-10-13T10:11:47.114Z,12.25
2022-10-13T10:12:47.101Z,12.30
2022-10-13T10:13:47.072Z,12.25
2022-10-13T10:14:47.065Z,12.25
2022-10-13T10:15:47.056Z,12.46
2022-10-13T10:16:47.034Z,12.46
2022-10-13T10:17:47.014Z,11.92
2022-10-13T10:18:47.010Z,12.51
2022-10-13T10:19:47.004Z,12.08
2022-10-13T10:20:46.997Z,12.25
2022-10-13T10:21:46.969Z,12.57
2022-10-13T10:22:46.956Z,12.14
2022-10-13T10:24:56.750Z,12.19
2022-10-13T10:25:56.741Z,12.03
2022-10-13T10:26:56.703Z,12.46
2022-10-13T10:27:56.691Z,12.68
2022-10-13T10:28:56.760Z,11.87
2022-10-13T10:29:56.671Z,12.46
2022-10-13T10:30:56.687Z,12.19
2022-10-13T10:31:56.644Z,11.87
2022-10-13T10:32:56.622Z,12.51
2022-10-13T10:33:56.613Z,11.92
2022-10-13T10:34:56.593Z,12.46
2022-10-13T10:35:56.603Z,12.51
2022-10-13T10:36:56.572Z,12.68
2022-10-13T10:37:56.562Z,12.41
2022-10-13T10:38:56.543Z,12.62
2022-10-13T10:39:56.534Z,12.19
2022-10-13T10:40:56.535Z,12.19
2022-10-13T10:41:56.504Z,12.14
2022-10-13T10:42:56.486Z,11.92
2022-10-13T10:43:56.485Z,12.46
2022-10-13T10:44:56.466Z,11.87
2022-10-13T10:45:56.465Z,12.08
2022-10-13T10:46:56.436Z,12.25
2022-10-13T10:47:56.435Z,11.87
2022-10-13T10:48:56.407Z,12.25
2022-10-13T10:49:56.403Z,12.62
2022-10-13T10:50:56.392Z,12.08
2022-10-13T10:51:56.374Z,12.51
2022-10-13T10:52:56.348Z,12.46
2022-10-13T10:53:56.347Z,11.87
2022-10-13T10:54:56.330Z,12.03
2022-10-13T10:55:56.327Z,11.92
2022-10-13T10:56:56.297Z,11.92
2022-10-13T10:57:56.297Z,11.98
2022-10-13T10:58:56.268Z,12.46
2022-10-13T10:59:56.268Z,12.35
2022-10-13T11:00:56.278Z,11.92
2022-10-13T11:01:56.295Z,12.08
2022-10-13T11:02:56.229Z,12.62
2022-10-13T11:03:56.210Z,12.08
2022-10-13T11:04:56.189Z,12.08
2022-10-13T11:05:56.199Z,12.57
2022-10-13T11:06:56.170Z,12.68
2022-10-13T11:07:56.161Z,12.08
2022-10-13T11:08:56.141Z,12.08
2022-10-13T11:09:56.142Z,12.03
2022-10-13T11:10:56.131Z,11.71
2022-10-13T11:11:56.110Z,12.08
2022-10-13T11:12:56.091Z,11.92
2022-10-13T11:13:56.085Z,11.98
2022-10-13T11:14:56.072Z,12.19
2022-10-13T11:15:56.071Z,12.08
2022-10-13T11:16:56.033Z,12.30
2022-10-13T11:17:56.044Z,12.46
2022-10-13T11:18:56.002Z,11.87
2022-10-13T11:19:56.013Z,11.87
2022-10-13T11:20:56.010Z,11.92
2022-10-13T11:21:55.974Z,12.14
2022-10-13T11:22:55.964Z,11.92
2022-10-13T11:24:01.097Z,11.92
2022-10-13T11:24:56.935Z,11.98
2022-10-13T11:25:55.944Z,12.03
2022-10-13T11:26:55.904Z,11.87
2022-10-13T11:27:55.894Z,12.19
2022-10-13T11:28:55.915Z,12.03
2022-10-13T11:29:55.875Z,11.92
2022-10-13T11:30:55.880Z,11.87
2022-10-13T11:31:55.835Z,12.03
2022-10-13T11:32:55.839Z,11.92
2022-10-13T11:33:55.816Z,11.92
2022-10-13T11:34:55.806Z,12.19
2022-10-13T11:35:55.806Z,12.08
2022-10-13T11:36:55.779Z,12.08
2022-10-13T11:38:06.720Z,11.87
2022-10-13T11:38:56.755Z,12.14
2022-10-13T11:39:55.727Z,12.03
2022-10-13T11:40:55.738Z,11.87
2022-10-13T11:41:55.709Z,12.03
2022-10-13T11:42:58.433Z,12.25
2022-10-13T11:43:55.685Z,12.30
2022-10-13T11:44:55.673Z,12.14
2022-10-13T11:45:55.672Z,12.08
2022-10-13T11:46:55.648Z,12.14
2022-10-13T11:47:55.692Z,12.14
2022-10-13T11:48:55.619Z,12.08
2022-10-13T11:49:55.602Z,12.14
2022-10-13T11:50:55.628Z,11.98
2022-10-13T11:51:55.570Z,12.03
2022-10-13T11:52:55.561Z,12.03
2022-10-13T11:53:55.553Z,11.87
2022-10-13T11:54:55.542Z,12.08
2022-10-13T11:55:55.533Z,12.08
2022-10-13T11:56:55.517Z,11.87
2022-10-13T11:57:55.494Z,11.92
2022-10-13T11:58:55.491Z,12.30
2022-10-13T11:59:55.466Z,12.08
2022-10-13T12:00:55.475Z,11.87
2022-10-13T12:01:55.447Z,12.30
2022-10-13T12:02:55.501Z,11.92
2022-10-13T12:03:55.413Z,12.30
2022-10-13T12:04:55.404Z,11.87
2022-10-13T12:05:55.403Z,12.08
2022-10-13T12:06:55.389Z,12.08
2022-10-13T12:07:55.362Z,11.82
2022-10-13T12:08:55.358Z,11.87
2022-10-13T12:09:55.343Z,12.08
2022-10-13T12:10:55.342Z,11.87
2022-10-13T12:11:55.304Z,12.08
2022-10-13T12:12:55.305Z,11.87
2022-10-13T12:13:55.283Z,11.87
2022-10-13T12:14:55.284Z,12.03
2022-10-13T12:15:55.276Z,11.87
2022-10-13T12:17:55.237Z,12.30
2022-10-13T12:18:55.217Z,12.14
2022-10-13T12:19:55.205Z,12.08
2022-10-13T12:20:55.207Z,12.03
2022-10-13T12:21:55.186Z,11.87
2022-10-13T12:22:55.166Z,12.08
2022-10-13T12:23:55.149Z,12.03
2022-10-13T12:24:55.137Z,12.08
2022-10-13T12:25:55.188Z,12.03
2022-10-13T12:26:55.119Z,11.87
2022-10-13T12:27:55.108Z,12.14
2022-10-13T12:28:55.193Z,11.98
2022-10-13T12:29:55.069Z,11.87
2022-10-13T12:30:55.121Z,11.87
2022-10-13T12:31:55.062Z,12.03
2022-10-13T12:32:55.038Z,12.14
2022-10-13T12:33:55.030Z,11.82
2022-10-13T12:34:55.008Z,11.87
2022-10-13T12:35:55.001Z,12.19
2022-10-13T12:36:55.012Z,12.08
2022-10-13T12:37:54.961Z,12.14
2022-10-13T12:38:54.952Z,12.08
2022-10-13T12:39:54.940Z,12.03
2022-10-13T12:40:54.942Z,11.92
2022-10-13T12:41:54.920Z,12.08
2022-10-13T12:42:54.990Z,12.08
2022-10-13T12:43:54.881Z,12.03
2022-10-13T12:44:54.871Z,12.30
2022-10-13T12:45:54.862Z,11.98
2022-10-13T12:46:54.862Z,11.82
2022-10-13T12:47:54.832Z,12.25
2022-10-13T12:48:54.823Z,12.08
2022-10-13T12:49:54.802Z,12.25
2022-10-13T12:50:54.819Z,12.14
2022-10-13T12:51:54.773Z,12.03
2022-10-13T12:52:54.773Z,11.87
2022-10-13T12:53:54.763Z,12.19
2022-10-13T12:54:54.733Z,12.25
2022-10-13T12:55:54.765Z,11.92
2022-10-13T12:56:56.373Z,11.98